Time;durP1;ratioP1;P1;durP2;ratioP2;P2;SDS_P1;SDS_P2;PMS_P1;PMS_P2;Temp;Humidity;BMP_temperature;BMP_pressure;BME280_temperature;BME280_humidity;BME280_pressure;Samples;Min_cycle;Max_cycle;Signal;HPM_P1;HPM_P2
2021/09/08 04:36:32;;;;;;;17.33;15.70;;;;;;;12.63;100.00;98895.81;4908386;23;105334;-65
2021/09/08 04:39:00;;;;;;;14.57;13.07;;;;;;;12.77;100.00;98885.00;4896355;28;103233;-65
2021/09/08 04:41:29;;;;;;;17.53;15.57;;;;;;;12.56;100.00;98889.28;4914540;28;103036;-59
2021/09/08 04:43:57;;;;;;;18.77;16.87;;;;;;;12.59;100.00;98884.63;4904794;28;103086;-60
2021/09/08 04:46:25;;;;;;;15.77;14.37;;;;;;;12.81;100.00;98881.13;4911409;28;103305;-60
2021/09/08 04:49:00;;;;;;;12.60;11.40;;;;;;;12.92;98.69;98878.47;4911076;28;103307;-60
2021/09/08 04:51:33;;;;;;;12.57;11.47;;;;;;;12.98;98.33;98888.59;4898846;28;102948;-60
2021/09/08 04:54:01;;;;;;;10.40;9.50;;;;;;;13.08;96.88;98896.72;4918957;28;102946;-61
2021/09/08 04:56:29;;;;;;;12.67;11.57;;;;;;;13.07;96.73;98887.91;4916400;28;103894;-60
2021/09/08 04:58:57;;;;;;;10.07;9.17;;;;;;;13.13;95.85;98887.44;4919350;28;103260;-59
2021/09/08 05:01:25;;;;;;;12.00;10.70;;;;;;;13.22;94.65;98891.16;4912556;28;102727;-64
2021/09/08 05:03:53;;;;;;;10.37;9.47;;;;;;;13.27;93.46;98894.28;4915449;28;103014;-64
2021/09/08 05:06:21;;;;;;;12.73;11.27;;;;;;;13.27;92.76;98892.47;4913702;28;103319;-59
2021/09/08 05:08:51;;;;;;;14.63;13.17;;;;;;;13.01;93.65;98887.50;4918339;28;103718;-64
2021/09/08 05:11:19;;;;;;;14.97;13.47;;;;;;;12.71;97.62;98888.13;4916854;28;102610;-58
2021/09/08 05:13:47;;;;;;;10.23;9.33;;;;;;;12.98;96.23;98890.41;4921512;28;102861;-65
2021/09/08 05:16:15;;;;;;;15.23;13.63;;;;;;;13.08;94.41;98886.94;4915554;28;103316;-60
2021/09/08 05:18:43;;;;;;;13.77;12.57;;;;;;;13.10;95.02;98890.31;4916515;28;103347;-58
2021/09/08 05:21:11;;;;;;;12.83;11.63;;;;;;;13.07;95.96;98879.94;4898203;28;103041;-59
2021/09/08 05:23:39;;;;;;;10.63;9.63;;;;;;;13.24;95.48;98892.72;4915576;28;104171;-65
2021/09/08 05:26:13;;;;;;;9.70;8.80;;;;;;;13.41;94.01;98887.84;4899574;28;104908;-64
2021/09/08 05:28:41;;;;;;;9.63;8.80;;;;;;;13.50;92.33;98887.13;4914698;28;103273;-65
2021/09/08 05:31:09;;;;;;;12.70;11.50;;;;;;;13.37;92.62;98892.56;4915919;28;102716;-65
2021/09/08 05:33:37;;;;;;;13.80;12.50;;;;;;;13.15;93.46;98893.44;4919725;28;103203;-59
2021/09/08 05:36:06;;;;;;;13.20;11.97;;;;;;;12.93;95.51;98900.53;4907073;28;103298;-59
2021/09/08 05:38:35;;;;;;;13.10;11.70;;;;;;;13.18;94.39;98898.50;4928830;28;103307;-60
2021/09/08 05:41:05;;;;;;;13.70;12.40;;;;;;;13.16;95.54;98889.84;4930741;28;102764;-61
2021/09/08 05:43:35;;;;;;;11.13;9.90;;;;;;;13.39;94.47;98890.63;4938745;28;103222;-64
2021/09/08 05:53:35;;;;;;;11.13;10.07;;;;;;;13.60;97.55;98888.91;4929447;28;102979;-59
2021/09/08 05:56:03;;;;;;;11.73;10.63;;;;;;;13.82;96.00;98888.81;4935379;28;103004;-59
2021/09/08 05:58:31;;;;;;;18.57;16.67;;;;;;;13.70;98.27;98902.25;4927551;28;103249;-64
2021/09/08 06:01:00;;;;;;;12.67;11.50;;;;;;;13.90;98.18;98896.13;4936014;28;103206;-66
2021/09/08 06:03:28;;;;;;;11.33;10.23;;;;;;;14.02;97.17;98887.16;4939335;28;102696;-59
2021/09/08 06:05:56;;;;;;;13.13;11.83;;;;;;;14.20;96.29;98890.97;4941024;28;104015;-60
2021/09/08 06:08:24;;;;;;;14.80;13.40;;;;;;;14.32;94.91;98894.41;4935784;28;103466;-60
2021/09/08 06:10:52;;;;;;;12.10;11.00;;;;;;;14.50;94.72;98882.22;4936579;28;103233;-59
2021/09/08 06:13:21;;;;;;;10.83;9.83;;;;;;;14.70;93.54;98892.00;4936349;28;102651;-59
2021/09/08 06:15:49;;;;;;;12.53;11.37;;;;;;;14.87;91.99;98887.88;4934998;28;103118;-65
2021/09/08 06:18:19;;;;;;;11.23;10.23;;;;;;;15.05;91.03;98886.25;4940492;28;104225;-65
2021/09/08 06:20:47;;;;;;;9.23;8.33;;;;;;;15.21;89.75;98881.28;4922159;28;104143;-66
2021/09/08 06:23:16;;;;;;;10.77;9.77;;;;;;;15.36;89.46;98877.25;4945757;28;102713;-66
2021/09/08 06:25:44;;;;;;;9.20;8.40;;;;;;;15.49;89.33;98885.88;4940901;28;102737;-66
2021/09/08 06:28:12;;;;;;;10.70;9.50;;;;;;;15.60;88.98;98885.75;4941088;28;103293;-66
2021/09/08 06:30:40;;;;;;;20.97;17.83;;;;;;;15.17;92.86;98885.19;4925169;28;104237;-59
2021/09/08 06:33:08;;;;;;;19.77;17.90;;;;;;;15.10;95.00;98878.75;4942367;28;102680;-59
2021/09/08 06:35:37;;;;;;;19.40;17.30;;;;;;;15.12;95.83;98875.94;4924240;28;102807;-60
2021/09/08 06:38:05;;;;;;;20.90;17.43;;;;;;;14.95;95.15;98877.41;4937675;28;103266;-59
2021/09/08 06:40:33;;;;;;;20.83;18.77;;;;;;;14.89;96.42;98873.47;4941765;28;103293;-59
2021/09/08 06:43:01;;;;;;;20.33;18.17;;;;;;;14.97;96.83;98872.78;4944141;28;102995;-58
2021/09/08 06:45:29;;;;;;;17.83;15.77;;;;;;;15.02;95.71;98875.88;4941238;28;104093;-59
2021/09/08 06:47:57;;;;;;;13.93;12.63;;;;;;;15.45;94.83;98873.78;4943739;28;103821;-59
2021/09/08 06:50:26;;;;;;;17.40;15.70;;;;;;;15.36;95.32;98869.28;4941614;28;103014;-59
2021/09/08 06:52:58;;;;;;;18.37;16.67;;;;;;;15.43;95.98;98873.09;4939810;28;102564;-67
2021/09/08 06:55:26;;;;;;;16.43;14.87;;;;;;;15.44;95.37;98872.09;4943713;28;102660;-67
2021/09/08 06:57:54;;;;;;;16.50;15.07;;;;;;;15.61;95.43;98866.13;4938780;28;103875;-68
2021/09/08 07:00:22;;;;;;;20.03;16.73;;;;;;;15.70;95.74;98872.44;4945729;28;103260;-68
2021/09/08 07:02:50;;;;;;;13.47;12.17;;;;;;;16.15;92.35;98862.06;4948104;28;102834;-68
2021/09/08 07:05:21;;;;;;;18.30;16.50;;;;;;;15.97;92.10;98858.44;4942756;28;103985;-59
2021/09/08 07:07:49;;;;;;;17.87;16.10;;;;;;;16.06;91.83;98857.56;4942436;28;104092;-59
2021/09/08 07:10:19;;;;;;;17.00;15.10;;;;;;;15.97;90.63;98855.78;4939869;28;103274;-59
2021/09/08 07:12:47;;;;;;;17.27;15.67;;;;;;;15.96;88.94;98852.28;4942458;28;102653;-59
2021/09/08 07:15:15;;;;;;;16.20;14.53;;;;;;;16.15;88.20;98856.72;4938524;28;102616;-69
2021/09/08 07:17:43;;;;;;;14.53;13.13;;;;;;;16.48;88.43;98847.41;4941209;28;103287;-59
2021/09/08 07:20:11;;;;;;;16.70;15.00;;;;;;;16.56;86.63;98835.06;4943903;28;103316;-59
2021/09/08 07:22:39;;;;;;;14.83;13.53;;;;;;;17.23;83.22;98839.28;4946317;28;102628;-59
2021/09/08 07:25:09;;;;;;;13.00;11.80;;;;;;;17.54;82.12;98839.84;4945923;28;103934;-59
2021/09/08 07:27:39;;;;;;;14.17;12.87;;;;;;;17.81;81.19;98843.28;4932245;28;103431;-68
2021/09/08 07:30:08;;;;;;;12.80;11.70;;;;;;;18.10;80.47;98839.53;4945553;28;103267;-69
2021/09/08 07:32:37;;;;;;;15.80;13.33;;;;;;;17.58;78.34;98841.19;4944167;28;102781;-68
2021/09/08 07:35:05;;;;;;;14.37;12.97;;;;;;;17.96;76.40;98849.75;4958598;28;102761;-68
2021/09/08 07:37:37;;;;;;;12.93;11.45;;;;;;;17.51;74.67;98843.63;4959797;28;103308;-68
2021/09/08 07:40:09;;;;;;;13.05;11.75;;;;;;;17.92;74.82;98843.03;4958224;28;103098;-68
2021/09/08 07:42:39;;;;;;;13.25;11.95;;;;;;;18.31;74.26;98842.69;4961534;28;102707;-60
2021/09/08 07:45:08;;;;;;;13.43;12.02;;;;;;;18.28;73.60;98843.84;4958183;28;102635;-59
2021/09/08 07:47:37;;;;;;;11.70;10.52;;;;;;;18.76;73.65;98840.66;4941847;28;103287;-59
2021/09/08 07:50:06;;;;;;;12.10;10.90;;;;;;;19.34;71.13;98837.25;4957287;28;103232;-60
2021/09/08 07:52:34;;;;;;;13.05;11.75;;;;;;;19.22;70.77;98839.38;4959257;28;102708;-59
2021/09/08 07:55:03;;;;;;;14.70;12.07;;;;;;;19.68;69.70;98836.19;4913282;28;103681;-60
2021/09/08 07:57:32;;;;;;;13.57;10.93;;;;;;;19.54;69.99;98835.97;4951726;28;103900;-60
2021/09/08 08:00:01;;;;;;;12.77;11.50;;;;;;;19.72;70.73;98842.06;4954597;28;103228;-61
2021/09/08 08:02:43;;;;;;;13.43;12.13;;;;;;;19.62;67.81;98836.03;4953469;28;103046;-60
2021/09/08 08:05:12;;;;;;;10.80;9.90;;;;;;;20.32;68.23;98831.91;4951545;28;104011;-60
2021/09/08 08:07:41;;;;;;;12.77;11.57;;;;;;;19.85;66.73;98831.69;4954136;28;103272;-61
2021/09/08 08:10:15;;;;;;;12.88;11.45;;;;;;;20.75;64.37;98825.25;4957670;28;103889;-60
2021/09/08 08:12:44;;;;;;;11.85;10.75;;;;;;;20.68;65.30;98813.56;4927325;28;102877;-60
2021/09/08 08:15:14;;;;;;;10.77;9.77;;;;;;;22.17;61.83;98813.28;4947234;28;103285;-60
2021/09/08 08:17:43;;;;;;;10.38;9.32;;;;;;;22.78;60.15;98818.44;4948548;28;102988;-61
2021/09/08 08:20:15;;;;;;;12.73;11.43;;;;;;;21.25;63.68;98816.88;4950515;28;103572;-59
2021/09/08 08:22:44;;;;;;;11.80;10.38;;;;;;;21.04;63.54;98817.47;4954403;28;102662;-59
2021/09/08 08:25:15;;;;;;;10.75;9.68;;;;;;;22.12;61.02;98808.44;4953743;28;104222;-60
2021/09/08 08:27:43;;;;;;;11.38;10.15;;;;;;;22.17;61.04;98808.75;4947606;28;104021;-59
2021/09/08 08:30:15;;;;;;;12.13;10.23;;;;;;;21.89;61.28;98813.81;4946401;28;103235;-70
2021/09/08 08:32:44;;;;;;;13.65;10.00;;;;;;;23.16;61.40;98799.47;4914635;28;102782;-61
2021/09/08 08:35:12;;;;;;;10.88;9.80;;;;;;;22.61;61.15;98810.66;4942415;28;104096;-61
2021/09/08 08:37:41;;;;;;;9.90;8.90;;;;;;;23.85;57.32;98804.22;4949350;28;104021;-61
2021/09/08 08:40:12;;;;;;;10.30;9.30;;;;;;;23.65;57.18;98806.72;4952341;28;103285;-64
2021/09/08 08:42:40;;;;;;;11.23;9.88;;;;;;;23.95;55.68;98801.19;4952431;28;102667;-62
2021/09/08 08:45:14;;;;;;;11.93;10.70;;;;;;;23.35;55.21;98801.56;4950094;28;102661;-62
2021/09/08 08:47:43;;;;;;;8.20;7.50;;;;;;;24.95;55.29;98793.69;4953382;28;103259;-62
2021/09/08 08:50:16;;;;;;;9.70;8.75;;;;;;;25.02;52.10;98799.97;4951153;28;103287;-62
2021/09/08 08:52:45;;;;;;;8.63;7.75;;;;;;;25.58;51.29;98796.06;4953622;28;102789;-62
2021/09/08 08:55:14;;;;;;;8.77;7.95;;;;;;;26.00;53.20;98794.06;4951752;28;103982;-62
2021/09/08 08:57:42;;;;;;;11.05;7.70;;;;;;;26.39;50.68;98783.25;4943918;28;103280;-62
2021/09/08 09:00:10;;;;;;;9.98;8.23;;;;;;;25.15;51.43;98783.81;4953334;28;103392;-63
2021/09/08 09:02:46;;;;;;;9.02;8.15;;;;;;;26.03;50.66;98785.53;4951386;28;103118;-64
2021/09/08 09:05:30;;;;;;;8.55;7.03;;;;;;;26.15;50.62;98773.06;4957724;28;104188;-63
2021/09/08 09:07:58;;;;;;;8.80;7.90;;;;;;;26.25;48.11;98777.03;4956729;28;103265;-64
2021/09/08 09:10:28;;;;;;;8.68;7.85;;;;;;;25.99;47.69;98781.59;4959107;28;102995;-63
2021/09/08 09:12:56;;;;;;;7.43;6.43;;;;;;;26.67;46.37;98775.72;4959654;28;102708;-63
2021/09/08 09:15:25;;;;;;;10.45;7.45;;;;;;;26.46;46.78;98773.28;4957432;28;103869;-64
2021/09/08 09:17:55;;;;;;;8.07;7.35;;;;;;;26.25;45.81;98759.94;4959743;28;103283;-64
2021/09/08 09:20:24;;;;;;;7.50;6.72;;;;;;;26.06;47.81;98769.72;4958106;28;103367;-63
2021/09/08 09:22:55;;;;;;;8.20;7.15;;;;;;;26.87;46.15;98759.44;4959058;28;102725;-63
2021/09/08 09:25:26;;;;;;;8.35;7.60;;;;;;;26.25;46.72;98762.66;4944446;28;102684;-64
2021/09/08 09:27:56;;;;;;;7.40;6.63;;;;;;;25.92;47.08;98760.75;4958693;28;103394;-63
2021/09/08 09:30:26;;;;;;;7.05;6.50;;;;;;;26.36;46.13;98753.88;4960846;28;104215;-63
2021/09/08 09:32:59;;;;;;;7.50;6.80;;;;;;;26.87;45.76;98752.16;4960144;28;102769;-64
2021/09/08 09:35:29;;;;;;;9.50;8.43;;;;;;;26.52;46.18;98742.63;4932870;28;103527;-64
2021/09/08 09:37:59;;;;;;;8.05;7.25;;;;;;;27.23;47.28;98748.88;4952292;28;104080;-63
2021/09/08 09:40:30;;;;;;;7.95;7.15;;;;;;;27.87;45.38;98746.03;4953141;28;103255;-63
2021/09/08 09:43:03;;;;;;;8.23;7.43;;;;;;;27.51;44.61;98743.13;4934879;28;102861;-64
2021/09/08 09:45:33;;;;;;;8.48;7.65;;;;;;;26.77;44.01;98746.31;4955012;28;103215;-64
2021/09/08 09:48:04;;;;;;;8.20;7.40;;;;;;;26.91;46.28;98733.59;4953545;28;103110;-64
2021/09/08 09:50:33;;;;;;;7.47;6.78;;;;;;;27.46;45.81;98732.09;4945476;28;103191;-64
2021/09/08 09:53:02;;;;;;;8.77;7.90;;;;;;;27.27;46.19;98733.03;4937650;28;103046;-64
2021/09/08 09:55:31;;;;;;;7.15;6.45;;;;;;;27.55;45.53;98731.66;4951559;28;103708;-63
2021/09/08 09:57:59;;;;;;;8.75;6.85;;;;;;;27.52;44.69;98725.81;4954904;28;103289;-65
2021/09/08 10:00:28;;;;;;;8.30;7.57;;;;;;;26.39;47.06;98726.38;4938881;28;103040;-63
2021/09/08 10:02:57;;;;;;;7.72;6.90;;;;;;;27.38;45.25;98729.63;4950282;28;102646;-63
2021/09/08 10:05:26;;;;;;;8.63;7.82;;;;;;;27.05;45.14;98719.78;4947943;28;103115;-64
2021/09/08 10:07:55;;;;;;;7.80;7.10;;;;;;;27.68;44.09;98717.13;4952343;28;103226;-63
2021/09/08 10:10:30;;;;;;;7.47;6.88;;;;;;;27.29;46.82;98709.22;4953062;28;103250;-63
2021/09/08 10:13:02;;;;;;;8.75;7.95;;;;;;;27.45;45.35;98703.34;4957933;28;102707;-62
2021/09/08 10:15:32;;;;;;;7.95;6.53;;;;;;;27.61;45.02;98702.81;4961167;28;103763;-64
2021/09/08 10:18:10;;;;;;;7.90;7.13;;;;;;;27.80;44.64;98701.81;4961519;28;103122;-63
2021/09/08 10:20:43;;;;;;;7.85;7.15;;;;;;;26.85;45.30;98691.91;4954678;28;103198;-64
2021/09/08 10:23:16;;;;;;;8.38;7.13;;;;;;;25.66;47.97;98693.06;4960478;28;103058;-63
2021/09/08 10:25:45;;;;;;;8.55;7.05;;;;;;;26.59;47.30;98681.13;4958978;28;103874;-63
2021/09/08 10:28:17;;;;;;;7.55;6.93;;;;;;;26.83;47.86;98672.34;4940062;28;103280;-63
2021/09/08 10:30:46;;;;;;;7.95;7.15;;;;;;;27.88;47.36;98682.53;4956746;28;103244;-64
2021/09/08 10:33:15;;;;;;;8.20;7.00;;;;;;;27.94;44.71;98670.81;4960463;28;104019;-65
2021/09/08 10:35:44;;;;;;;9.23;7.47;;;;;;;27.98;43.68;98666.59;4950076;28;102878;-64
2021/09/08 10:38:15;;;;;;;7.20;6.53;;;;;;;27.78;45.25;98665.09;4953753;28;103353;-64
2021/09/08 10:40:44;;;;;;;8.43;7.22;;;;;;;27.77;44.75;98658.84;4959797;28;103377;-64
2021/09/08 10:43:13;;;;;;;7.53;6.93;;;;;;;27.71;44.42;98648.84;4954747;28;102702;-64
2021/09/08 10:45:50;;;;;;;6.97;6.38;;;;;;;27.81;45.29;98649.22;4938025;28;102814;-63
2021/09/08 10:48:38;;;;;;;6.78;6.18;;;;;;;28.56;42.93;98648.06;4950476;28;103336;-63
2021/09/08 10:51:09;;;;;;;7.03;6.53;;;;;;;27.27;44.56;98646.22;4954938;28;104635;-63
2021/09/08 10:53:39;;;;;;;7.07;6.38;;;;;;;27.43;45.89;98648.44;4958515;28;102753;-64
2021/09/08 10:56:08;;;;;;;7.18;6.47;;;;;;;28.46;44.13;98642.31;4939218;28;102748;-63
2021/09/08 10:58:57;;;;;;;7.82;7.10;;;;;;;28.35;41.98;98634.91;4958432;28;104236;-63
2021/09/08 11:01:26;;;;;;;6.78;5.72;;;;;;;28.49;42.54;98641.03;4957527;28;103222;-63
2021/09/08 11:03:55;;;;;;;7.35;6.50;;;;;;;28.62;42.87;98635.44;4957698;28;102611;-64
2021/09/08 11:06:36;;;;;;;6.75;6.15;;;;;;;28.67;43.21;98627.47;4957939;28;102749;-64
2021/09/08 11:09:06;;;;;;;7.07;6.38;;;;;;;28.34;42.47;98635.13;4956896;28;103900;-63
2021/09/08 11:11:34;;;;;;;6.57;6.05;;;;;;;28.89;42.03;98623.19;4957466;28;103027;-63
2021/09/08 11:14:03;;;;;;;7.00;6.40;;;;;;;28.72;41.52;98624.88;4948796;28;102723;-64
2021/09/08 11:16:32;;;;;;;7.00;6.38;;;;;;;28.24;42.50;98629.41;4962530;28;103984;-64
2021/09/08 11:19:02;;;;;;;6.88;6.22;;;;;;;28.59;41.59;98625.03;4956611;28;103453;-64
2021/09/08 11:21:32;;;;;;;7.38;6.65;;;;;;;28.79;42.04;98620.22;4962161;28;103230;-63
2021/09/08 11:24:04;;;;;;;6.53;6.03;;;;;;;29.37;40.32;98611.44;4939600;28;102824;-61
2021/09/08 11:26:34;;;;;;;6.82;6.22;;;;;;;29.41;41.01;98613.50;4958957;28;102883;-62
2021/09/08 11:29:04;;;;;;;7.50;6.80;;;;;;;29.53;39.98;98610.78;4959720;28;103828;-61
2021/09/08 11:31:37;;;;;;;6.82;6.22;;;;;;;29.93;39.88;98606.34;4958089;28;103212;-61
2021/09/08 11:34:16;;;;;;;7.43;6.22;;;;;;;29.00;40.85;98619.69;4957476;28;103039;-62
2021/09/08 11:36:44;;;;;;;7.30;6.70;;;;;;;28.85;40.95;98621.19;4960350;28;103151;-62
2021/09/08 11:39:17;;;;;;;7.78;6.38;;;;;;;29.54;39.26;98609.72;4956791;28;103534;-61
2021/09/08 11:42:08;;;;;;;6.85;6.32;;;;;;;28.90;42.32;98619.44;4959207;28;103255;-62
2021/09/08 11:44:36;;;;;;;6.85;5.97;;;;;;;29.79;39.73;98610.34;4956331;28;102765;-61
2021/09/08 11:47:15;;;;;;;6.35;5.85;;;;;;;29.66;39.54;98608.69;4958500;28;102746;-61
2021/09/08 11:49:44;;;;;;;6.47;5.97;;;;;;;27.67;41.58;98609.66;4959480;28;103285;-61
2021/09/08 11:52:16;;;;;;;6.93;6.32;;;;;;;28.17;40.66;98610.47;4958435;28;103256;-63
2021/09/08 11:54:49;;;;;;;6.07;5.47;;;;;;;28.78;41.77;98613.09;4959416;28;102646;-61
2021/09/08 11:57:23;;;;;;;7.00;6.18;;;;;;;28.88;40.67;98607.97;4959738;28;103038;-61
2021/09/08 11:59:53;;;;;;;6.53;6.03;;;;;;;29.54;39.39;98601.56;4958773;28;103664;-61
2021/09/08 12:02:21;;;;;;;6.35;5.85;;;;;;;29.66;39.31;98596.97;4958761;28;103217;-61
2021/09/08 12:04:50;;;;;;;6.88;6.18;;;;;;;29.64;39.81;98590.94;4957470;28;102698;-61
2021/09/08 12:07:18;;;;;;;6.38;5.88;;;;;;;29.87;38.63;98585.50;4959050;28;102906;-61
2021/09/08 12:09:54;;;;;;;7.35;5.78;;;;;;;29.76;38.98;98589.84;4941418;28;103285;-62
2021/09/08 12:12:24;;;;;;;6.20;5.70;;;;;;;30.30;38.23;98580.50;4959777;28;103254;-62
2021/09/08 12:14:52;;;;;;;6.65;5.95;;;;;;;29.62;39.29;98576.69;4959157;28;102693;-62
2021/09/08 12:17:24;;;;;;;6.30;5.70;;;;;;;27.90;41.09;98576.47;4959701;28;102654;-62
2021/09/08 12:19:58;;;;;;;5.90;5.40;;;;;;;29.86;39.79;98567.53;4957983;28;103990;-62
2021/09/08 12:22:28;;;;;;;5.32;4.82;;;;;;;30.36;38.80;98574.09;4958893;28;103243;-61
2021/09/08 12:24:58;;;;;;;5.57;5.15;;;;;;;30.79;37.47;98565.47;4957659;28;102826;-60
2021/09/08 12:27:30;;;;;;;6.72;6.13;;;;;;;30.38;37.78;98563.81;4962850;28;102616;-62
2021/09/08 12:29:59;;;;;;;6.35;5.80;;;;;;;30.59;37.29;98561.50;4957052;28;104067;-62
2021/09/08 12:32:47;;;;;;;5.57;5.15;;;;;;;29.84;38.49;98561.47;4961166;28;103262;-61
2021/09/08 12:35:43;;;;;;;5.20;4.80;;;;;;;30.83;38.08;98552.16;4962841;28;102819;-61
2021/09/08 12:38:27;;;;;;;5.85;5.20;;;;;;;29.88;38.38;98555.34;4905721;28;103093;-61
2021/09/08 12:41:11;;;;;;;7.50;6.10;;;;;;;29.10;40.80;98543.84;4961377;28;103282;-61
2021/09/08 12:43:41;;;;;;;6.10;5.60;;;;;;;28.14;40.11;98545.72;4960573;28;103021;-62
2021/09/08 12:46:09;;;;;;;5.07;4.68;;;;;;;29.49;38.58;98534.22;4960051;28;103892;-61
2021/09/08 12:48:37;;;;;;;5.43;4.93;;;;;;;29.78;38.78;98543.34;4963053;28;102783;-61
2021/09/08 12:51:06;;;;;;;5.38;4.88;;;;;;;29.86;37.21;98543.03;4960634;28;103066;-61
2021/09/08 12:53:34;;;;;;;5.00;4.60;;;;;;;30.50;37.13;98538.41;4958514;28;103024;-61
2021/09/08 12:56:07;;;;;;;5.30;4.80;;;;;;;29.61;38.26;98531.53;4941488;28;102769;-60
2021/09/08 12:58:37;;;;;;;5.47;4.97;;;;;;;30.13;37.10;98524.25;4958620;28;104035;-62
2021/09/08 13:01:05;;;;;;;6.32;5.70;;;;;;;27.82;39.45;98542.28;4959909;28;103260;-61
2021/09/08 13:03:33;;;;;;;6.38;5.55;;;;;;;27.80;40.88;98533.53;4941533;28;103425;-61
2021/09/08 13:06:02;;;;;;;5.55;5.03;;;;;;;27.34;40.47;98527.72;4957326;28;102739;-61
2021/09/08 13:08:30;;;;;;;6.40;5.78;;;;;;;27.80;40.96;98524.56;4957734;28;104067;-61
2021/09/08 13:10:58;;;;;;;5.97;5.47;;;;;;;28.73;41.35;98524.09;4957559;28;103404;-61
2021/09/08 13:13:26;;;;;;;6.25;5.00;;;;;;;29.21;37.67;98515.00;4955442;28;103220;-62
2021/09/08 13:15:56;;;;;;;5.53;4.93;;;;;;;29.25;36.79;98513.47;4953862;28;102664;-61
2021/09/08 13:18:24;;;;;;;5.95;4.97;;;;;;;28.53;38.58;98509.94;4959684;28;102720;-61
2021/09/08 13:20:52;;;;;;;6.50;4.50;;;;;;;29.36;37.19;98503.72;4956242;28;103385;-61
2021/09/08 13:23:20;;;;;;;6.10;4.80;;;;;;;29.61;38.62;98499.69;4957414;28;103788;-71
2021/09/08 13:25:48;;;;;;;5.53;5.10;;;;;;;29.61;37.83;98496.13;4939930;28;102762;-72
2021/09/08 13:28:16;;;;;;;4.90;4.50;;;;;;;29.94;38.41;98500.97;4957312;28;102902;-71
2021/09/08 13:30:44;;;;;;;5.22;4.82;;;;;;;30.07;37.88;98489.81;4958074;28;103460;-61
2021/09/08 13:33:16;;;;;;;5.07;4.68;;;;;;;30.06;35.99;98497.19;4959397;28;103305;-62
2021/09/08 13:35:44;;;;;;;4.85;4.35;;;;;;;29.58;37.04;98493.88;4962091;28;102838;-61
2021/09/08 13:38:14;;;;;;;4.43;4.03;;;;;;;30.19;36.96;98490.63;4961759;28;102733;-62
2021/09/08 13:40:42;;;;;;;5.45;4.68;;;;;;;29.14;35.78;98484.34;4958243;28;103323;-63
2021/09/08 13:43:10;;;;;;;5.70;5.07;;;;;;;28.40;38.23;98484.84;4962423;28;103362;-61
2021/09/08 13:45:42;;;;;;;6.65;4.90;;;;;;;27.85;38.65;98482.13;4957042;28;102616;-61
2021/09/08 13:48:10;;;;;;;5.45;4.95;;;;;;;27.64;38.23;98479.88;4961980;28;102885;-61
2021/09/08 13:50:39;;;;;;;4.63;4.20;;;;;;;28.34;38.07;98477.59;4959038;28;103284;-63
2021/09/08 13:53:07;;;;;;;5.03;4.63;;;;;;;29.05;37.48;98464.84;4959665;28;103202;-61
2021/09/08 13:55:35;;;;;;;5.13;4.68;;;;;;;29.25;37.63;98459.09;4961423;28;103812;-61
2021/09/08 13:58:06;;;;;;;6.05;5.03;;;;;;;28.90;37.38;98460.91;4961846;28;102713;-61
2021/09/08 14:00:34;;;;;;;5.97;5.07;;;;;;;29.01;37.86;98458.22;4957049;28;103304;-72
2021/09/08 14:03:03;;;;;;;4.57;4.18;;;;;;;28.91;38.06;98454.44;4961593;28;103190;-62
2021/09/08 14:05:32;;;;;;;4.32;3.92;;;;;;;28.78;39.07;98450.00;4939201;28;103180;-72
2021/09/08 14:08:02;;;;;;;5.78;5.15;;;;;;;29.00;38.22;98453.00;4947938;28;103938;-63
2021/09/08 14:10:30;;;;;;;4.78;4.35;;;;;;;29.23;38.19;98448.44;4948874;28;103947;-63
2021/09/08 14:12:58;;;;;;;4.40;4.00;;;;;;;29.31;37.71;98445.38;4957676;28;103397;-63
2021/09/08 14:15:26;;;;;;;5.22;4.72;;;;;;;29.37;36.90;98437.31;4958079;28;102757;-64
2021/09/08 14:17:54;;;;;;;5.07;4.68;;;;;;;29.28;37.87;98439.56;4961057;28;102754;-63
2021/09/08 14:20:23;;;;;;;5.38;4.43;;;;;;;29.01;38.38;98443.78;4943732;28;103928;-62
2021/09/08 14:22:51;;;;;;;4.35;3.95;;;;;;;29.21;38.55;98434.25;4956826;28;103277;-63
2021/09/08 14:25:21;;;;;;;4.63;4.28;;;;;;;29.07;38.32;98438.25;4955548;28;102695;-63
2021/09/08 14:27:49;;;;;;;5.28;4.70;;;;;;;29.00;38.47;98437.50;4959223;28;104224;-63
2021/09/08 14:45:31;;;;;;;4.63;4.22;;;;;;;28.82;36.60;98413.16;4936145;22;104329;-71
2021/09/08 14:48:00;;;;;;;3.78;3.47;;;;;;;29.11;36.86;98414.94;4992954;22;105273;-70
2021/09/08 14:50:29;;;;;;;4.32;3.92;;;;;;;28.58;38.04;98417.66;4987854;28;102689;-70
2021/09/08 14:52:57;;;;;;;7.18;4.95;;;;;;;28.01;39.53;98410.94;4989045;28;102712;-70
2021/09/08 14:55:26;;;;;;;5.47;4.07;;;;;;;28.18;39.41;98406.53;4996447;28;104071;-70
2021/09/08 14:57:54;;;;;;;5.50;4.93;;;;;;;28.05;39.53;98398.59;4994605;28;103007;-70
2021/09/08 15:00:23;;;;;;;5.70;4.20;;;;;;;28.08;38.87;98403.56;4994846;28;102613;-62
2021/09/08 15:02:52;;;;;;;5.05;4.63;;;;;;;27.85;39.74;98400.69;4991489;28;102646;-69
2021/09/08 15:05:21;;;;;;;4.43;4.03;;;;;;;28.01;39.63;98400.09;4974728;28;103356;-61
2021/09/08 15:07:50;;;;;;;4.60;4.20;;;;;;;28.36;39.14;98402.97;4991956;28;103187;-62
2021/09/08 15:10:18;;;;;;;3.60;3.30;;;;;;;28.23;37.80;98391.47;4990860;28;103165;-61
2021/09/08 15:12:46;;;;;;;6.57;3.95;;;;;;;28.31;37.63;98405.53;4996640;28;102663;-61
2021/09/08 15:15:14;;;;;;;4.80;4.30;;;;;;;28.11;38.76;98392.25;4987879;28;103283;-61
2021/09/08 15:17:43;;;;;;;4.32;4.03;;;;;;;28.12;39.34;98384.94;4987304;28;103297;-61
2021/09/08 15:20:14;;;;;;;4.85;4.45;;;;;;;27.58;40.02;98394.78;4987163;28;103000;-61
2021/09/08 15:22:42;;;;;;;8.98;4.40;;;;;;;27.17;39.09;98391.03;4993374;28;103746;-62
2021/09/08 15:25:13;;;;;;;4.90;4.15;;;;;;;27.37;40.04;98386.22;4995220;28;104369;-61
2021/09/08 15:27:42;;;;;;;4.43;3.88;;;;;;;27.69;39.78;98386.91;4992831;28;103223;-60
2021/09/08 15:30:11;;;;;;;4.10;3.70;;;;;;;27.85;39.77;98381.69;4989033;28;102647;-60
2021/09/08 15:32:39;;;;;;;3.88;3.58;;;;;;;28.00;39.47;98379.41;4991949;28;102775;-61
2021/09/08 15:35:07;;;;;;;6.10;3.85;;;;;;;27.73;40.61;98391.69;4988712;28;103653;-68
2021/09/08 15:37:36;;;;;;;3.95;3.65;;;;;;;27.83;39.19;98389.25;4985137;28;103224;-69
2021/09/08 15:40:06;;;;;;;4.28;3.90;;;;;;;27.81;38.86;98387.81;4993927;28;102962;-70
2021/09/08 15:42:35;;;;;;;6.95;4.15;;;;;;;27.55;39.48;98378.94;4988332;28;102749;-69
2021/09/08 15:45:03;;;;;;;6.10;4.22;;;;;;;27.20;39.11;98382.44;4991398;28;103275;-70
2021/09/08 15:47:32;;;;;;;3.45;3.08;;;;;;;27.41;40.10;98376.59;4989044;28;103220;-70
2021/09/08 15:50:00;;;;;;;5.15;4.03;;;;;;;27.31;40.30;98376.28;4993610;28;102586;-70
2021/09/08 15:52:41;;;;;;;4.40;4.00;;;;;;;27.40;40.92;98378.44;4999045;28;104105;-70
2021/09/08 15:55:10;;;;;;;4.32;3.80;;;;;;;27.57;40.64;98370.56;4993940;28;104852;-70
2021/09/08 15:57:38;;;;;;;5.20;4.57;;;;;;;27.54;39.92;98365.59;4997039;28;103225;-70
2021/09/08 16:00:22;;;;;;;4.32;3.97;;;;;;;27.37;41.07;98368.03;4996732;28;102645;-71
2021/09/08 16:10:28;;;;;;;3.90;3.60;;;;;;;27.20;43.00;98353.41;4988813;28;103122;-71
2021/09/08 16:12:56;;;;;;;4.93;4.53;;;;;;;27.27;41.77;98353.38;4992323;28;102722;-70
2021/09/08 16:15:24;;;;;;;4.22;3.92;;;;;;;27.35;41.39;98355.78;4995526;28;102650;-70
2021/09/08 16:17:53;;;;;;;4.30;3.90;;;;;;;27.15;42.29;98355.16;4985540;28;103348;-70
2021/09/08 16:20:22;;;;;;;4.57;4.18;;;;;;;26.80;42.61;98347.59;4997916;28;103066;-71
2021/09/08 16:22:53;;;;;;;4.68;4.25;;;;;;;27.16;43.27;98351.41;4989906;28;102791;-70
2021/09/08 16:25:21;;;;;;;3.97;3.67;;;;;;;27.17;43.80;98350.34;4990105;28;102599;-69
2021/09/08 16:27:50;;;;;;;5.97;4.60;;;;;;;26.86;43.20;98345.88;4988239;28;103273;-69
2021/09/08 16:30:18;;;;;;;4.70;4.25;;;;;;;26.90;42.79;98353.31;4986715;28;103214;-69
2021/09/08 16:32:46;;;;;;;4.75;4.32;;;;;;;26.83;42.42;98347.16;4989732;28;102635;-70
2021/09/08 16:35:17;;;;;;;5.05;4.65;;;;;;;26.32;44.65;98343.78;4991729;28;103731;-70
2021/09/08 16:37:46;;;;;;;4.80;4.40;;;;;;;26.59;44.44;98339.81;4993089;28;103398;-70